createdAt,value
2019-05-01T00:01:03.738Z,15.80
2019-05-01T00:03:42.393Z,15.90
2019-05-01T00:06:13.607Z,14.33
2019-05-01T00:08:43.042Z,18.17
2019-05-01T00:11:12.424Z,20.97
2019-05-01T00:16:11.577Z,13.30
2019-05-01T00:18:40.929Z,23.25
2019-05-01T00:21:10.312Z,24.02
2019-05-01T00:23:39.699Z,25.43
2019-05-01T00:26:09.198Z,26.37
2019-05-01T00:28:38.721Z,29.32
2019-05-01T00:31:08.182Z,13.22
2019-05-01T00:33:37.607Z,24.92
2019-05-01T00:36:07.062Z,34.05
2019-05-01T00:38:36.537Z,25.70
2019-05-01T00:41:05.931Z,20.75
2019-05-01T00:43:35.318Z,19.92
2019-05-01T00:46:04.707Z,23.00
2019-05-01T00:48:34.154Z,15.15
2019-05-01T00:51:03.517Z,17.35
2019-05-01T00:53:32.960Z,15.95
2019-05-01T00:56:22.204Z,18.62
2019-05-01T00:58:59.091Z,19.32
2019-05-01T01:01:30.211Z,14.35
2019-05-01T01:04:00.277Z,12.47
2019-05-01T01:06:29.697Z,23.10
2019-05-01T01:08:59.085Z,16.35
2019-05-01T01:11:28.438Z,17.90
2019-05-01T01:13:57.812Z,18.35
2019-05-01T01:16:27.320Z,16.30
2019-05-01T01:18:56.638Z,17.15
2019-05-01T01:21:26.014Z,20.70
2019-05-01T01:23:55.451Z,17.92
2019-05-01T01:26:24.809Z,16.50
2019-05-01T01:28:54.197Z,18.02
2019-05-01T01:31:23.575Z,15.30
2019-05-01T01:33:52.933Z,15.90
2019-05-01T01:36:22.307Z,15.00
2019-05-01T01:38:51.687Z,14.38
2019-05-01T01:41:21.065Z,20.95
2019-05-01T01:44:00.998Z,17.12
2019-05-01T01:46:32.107Z,17.05
2019-05-01T01:49:01.486Z,18.45
2019-05-01T01:51:30.897Z,21.48
2019-05-01T01:54:00.242Z,20.12
2019-05-01T01:56:29.623Z,18.05
2019-05-01T01:59:00.182Z,16.70
2019-05-01T02:01:47.610Z,18.87
2019-05-01T02:04:19.719Z,22.32
2019-05-01T02:06:50.820Z,29.07
2019-05-01T02:09:20.237Z,16.60
2019-05-01T02:11:49.726Z,19.80
2019-05-01T02:14:19.182Z,17.37
2019-05-01T02:16:48.633Z,15.72
2019-05-01T02:19:18.090Z,16.97
2019-05-01T02:21:47.622Z,19.70
2019-05-01T02:24:17.086Z,18.98
2019-05-01T02:26:54.676Z,18.95
2019-05-01T02:29:25.739Z,21.23
2019-05-01T02:31:55.237Z,18.17
2019-05-01T02:34:24.724Z,17.12
2019-05-01T02:36:54.125Z,19.37
2019-05-01T02:39:23.788Z,17.32
2019-05-01T02:41:53.476Z,16.73
2019-05-01T02:44:29.315Z,12.17
2019-05-01T02:46:59.603Z,19.57
2019-05-01T02:49:44.497Z,15.88
2019-05-01T02:52:14.027Z,18.10
2019-05-01T02:54:45.093Z,20.88
2019-05-01T02:57:17.302Z,20.70
2019-05-01T02:59:47.536Z,20.60
2019-05-01T03:02:17.061Z,19.55
2019-05-01T03:04:46.684Z,20.85
2019-05-01T03:07:16.832Z,19.87
2019-05-01T03:09:46.428Z,16.40
2019-05-01T03:12:15.882Z,21.77
2019-05-01T03:14:46.020Z,21.07
2019-05-01T03:17:33.609Z,16.62
2019-05-01T03:20:07.830Z,17.30
2019-05-01T03:22:55.252Z,15.68
2019-05-01T03:25:24.792Z,17.20
2019-05-01T03:30:23.921Z,17.98
2019-05-01T03:32:53.377Z,14.73
2019-05-01T03:35:22.846Z,15.85
2019-05-01T03:37:52.285Z,16.05
2019-05-01T03:40:21.819Z,15.93
2019-05-01T03:42:51.499Z,18.60
2019-05-01T03:45:20.862Z,17.30
2019-05-01T03:47:50.319Z,12.85
2019-05-01T03:50:19.709Z,20.75
2019-05-01T03:52:49.054Z,16.48
2019-05-01T03:55:18.544Z,18.42
2019-05-01T03:57:48.004Z,16.62
2019-05-01T04:00:35.578Z,14.47
2019-05-01T04:03:06.723Z,21.37
2019-05-01T04:05:36.176Z,18.92
2019-05-01T04:08:05.556Z,19.07
2019-05-01T04:10:34.907Z,17.30
2019-05-01T04:13:04.309Z,19.17
2019-05-01T04:15:33.649Z,22.60
2019-05-01T04:18:04.677Z,17.77
2019-05-01T04:20:34.133Z,19.77
2019-05-01T04:23:03.975Z,16.15
2019-05-01T04:25:33.503Z,19.77
2019-05-01T04:28:04.576Z,19.17
2019-05-01T04:31:01.164Z,13.22
2019-05-01T04:33:31.537Z,15.78
2019-05-01T04:36:19.082Z,16.00
2019-05-01T04:38:48.466Z,19.75
2019-05-01T04:41:37.309Z,15.70
2019-05-01T04:44:06.735Z,21.25
2019-05-01T04:46:36.109Z,19.98
2019-05-01T04:49:05.489Z,15.00
2019-05-01T04:51:35.094Z,16.67
2019-05-01T04:54:04.858Z,10.80
2019-05-01T04:56:34.318Z,23.87
2019-05-01T04:59:03.764Z,22.90
2019-05-01T05:01:52.516Z,17.67
2019-05-01T05:04:23.407Z,28.80
2019-05-01T05:06:52.762Z,16.67
2019-05-01T05:09:38.911Z,17.02
2019-05-01T05:12:28.246Z,21.23
2019-05-01T05:15:02.066Z,20.60
2019-05-01T05:17:31.513Z,17.48
2019-05-01T05:20:00.995Z,17.60
2019-05-01T05:22:30.545Z,16.00
2019-05-01T05:25:00.061Z,15.30
2019-05-01T05:27:29.668Z,17.60
2019-05-01T05:29:59.197Z,15.68
2019-05-01T05:32:29.036Z,16.40
2019-05-01T05:34:58.494Z,16.90
2019-05-01T05:37:32.291Z,18.60
2019-05-01T05:40:02.851Z,16.90
2019-05-01T05:42:32.321Z,15.00
2019-05-01T05:45:01.875Z,18.70
2019-05-01T05:47:31.241Z,15.53
2019-05-01T05:50:00.643Z,18.90
2019-05-01T05:52:31.664Z,19.75
2019-05-01T05:55:08.718Z,19.95
2019-05-01T05:57:42.500Z,19.05
2019-05-01T06:00:13.514Z,17.98
2019-05-01T06:02:50.516Z,22.07
2019-05-01T06:05:34.210Z,17.98
2019-05-01T06:08:17.089Z,15.88
2019-05-01T06:10:48.121Z,20.20
2019-05-01T06:13:21.858Z,18.50
2019-05-01T06:16:04.163Z,19.80
2019-05-01T06:18:39.420Z,22.15
2019-05-01T06:21:07.854Z,18.02
2019-05-01T06:23:45.109Z,19.15
2019-05-01T06:26:32.061Z,16.25
2019-05-01T06:29:00.809Z,18.12
2019-05-01T06:31:30.940Z,22.05
2019-05-01T06:34:00.592Z,18.65
2019-05-01T06:36:29.950Z,16.45
2019-05-01T06:38:59.411Z,16.62
2019-05-01T06:41:33.853Z,18.37
2019-05-01T06:44:25.562Z,19.17
2019-05-01T06:46:58.137Z,14.10
2019-05-01T06:49:30.857Z,14.10
2019-05-01T06:52:03.286Z,19.57
2019-05-01T06:54:32.744Z,16.57
2019-05-01T06:57:02.344Z,19.10
2019-05-01T06:59:33.418Z,20.67
2019-05-01T07:02:03.181Z,17.40
2019-05-01T07:04:38.157Z,16.57
2019-05-01T07:07:06.919Z,19.15
2019-05-01T07:09:35.815Z,19.42
2019-05-01T07:12:18.879Z,15.23
2019-05-01T07:14:50.814Z,14.70
2019-05-01T07:17:19.425Z,14.93
2019-05-01T07:20:05.920Z,13.98
2019-05-01T07:22:37.142Z,12.50
2019-05-01T07:25:08.089Z,15.75
2019-05-01T07:27:37.490Z,23.90
2019-05-01T07:30:09.257Z,17.67
2019-05-01T07:32:41.085Z,13.45
2019-05-01T07:35:10.733Z,15.90
2019-05-01T07:37:40.133Z,13.45
2019-05-01T07:40:09.509Z,11.57
2019-05-01T07:42:43.734Z,15.08
2019-05-01T07:45:14.981Z,15.05
2019-05-01T07:47:46.164Z,11.00
2019-05-01T07:50:16.850Z,8.95
2019-05-01T07:52:47.712Z,13.25
2019-05-01T07:55:20.084Z,17.75
2019-05-01T07:57:49.762Z,11.22
2019-05-01T08:00:41.496Z,11.35
2019-05-01T08:03:10.191Z,9.93
2019-05-01T08:05:40.760Z,9.28
2019-05-01T08:08:10.629Z,10.50
2019-05-01T08:10:40.659Z,10.75
2019-05-01T08:13:10.175Z,18.23
2019-05-01T08:15:39.537Z,10.78
2019-05-01T08:18:27.920Z,9.08
2019-05-01T08:21:02.569Z,10.95
2019-05-01T08:23:32.018Z,10.72
2019-05-01T08:26:04.070Z,11.73
2019-05-01T08:28:37.380Z,9.15
2019-05-01T08:31:23.078Z,10.50
2019-05-01T08:33:53.406Z,13.20
2019-05-01T08:36:22.996Z,9.23
2019-05-01T08:38:52.374Z,7.10
2019-05-01T08:41:21.776Z,10.20
2019-05-01T08:43:53.897Z,15.58
2019-05-01T08:46:24.939Z,10.78
2019-05-01T08:49:12.659Z,12.65
2019-05-01T08:51:43.634Z,7.08
2019-05-01T08:54:14.051Z,7.35
2019-05-01T08:56:43.778Z,8.73
2019-05-01T08:59:13.514Z,10.80
2019-05-01T09:01:45.738Z,9.78
2019-05-01T09:04:30.352Z,9.05
2019-05-01T09:06:57.193Z,11.08
2019-05-01T09:09:26.550Z,7.53
2019-05-01T09:11:55.927Z,8.75
2019-05-01T09:14:29.858Z,4.60
2019-05-01T09:16:56.754Z,5.60
2019-05-01T09:19:26.270Z,8.98
2019-05-01T09:21:55.691Z,5.37
2019-05-01T09:24:27.907Z,7.17
2019-05-01T09:27:00.955Z,6.15
2019-05-01T09:29:34.941Z,9.23
2019-05-01T09:32:04.983Z,7.75
2019-05-01T09:34:35.472Z,8.88
2019-05-01T09:37:04.866Z,11.53
2019-05-01T09:39:35.902Z,5.22
2019-05-01T09:42:06.671Z,5.78
2019-05-01T09:44:36.251Z,6.40
2019-05-01T09:47:06.067Z,6.25
2019-05-01T09:49:35.665Z,5.37
2019-05-01T09:52:25.242Z,8.35
2019-05-01T09:54:56.273Z,6.55
2019-05-01T09:57:25.659Z,9.48
2019-05-01T09:59:55.009Z,8.08
2019-05-01T10:02:24.473Z,7.30
2019-05-01T10:04:53.846Z,9.05
2019-05-01T10:07:23.968Z,6.75
2019-05-01T10:09:54.232Z,8.08
2019-05-01T10:12:23.689Z,8.73
2019-05-01T10:14:53.100Z,9.58
2019-05-01T10:17:22.475Z,9.60
2019-05-01T10:19:51.862Z,10.90
2019-05-01T10:22:21.229Z,7.65
2019-05-01T10:24:50.616Z,10.82
2019-05-01T10:27:21.638Z,8.85
2019-05-01T10:29:56.999Z,8.60
2019-05-01T10:32:34.078Z,10.35
2019-05-01T10:35:07.911Z,10.00
2019-05-01T10:37:38.573Z,10.75
2019-05-01T10:40:08.341Z,13.80
2019-05-01T10:42:41.024Z,15.70
2019-05-01T10:45:09.771Z,14.35
2019-05-01T10:47:39.150Z,11.50
2019-05-01T10:50:08.514Z,14.65
2019-05-01T10:52:37.911Z,11.03
2019-05-01T10:55:07.290Z,14.47
2019-05-01T10:57:40.634Z,15.53
2019-05-01T11:00:09.588Z,13.83
2019-05-01T11:02:39.050Z,14.60
2019-05-01T11:05:08.438Z,16.65
2019-05-01T11:10:10.925Z,11.05
2019-05-01T11:12:40.545Z,13.75
2019-05-01T11:15:09.942Z,15.35
2019-05-01T11:17:39.391Z,16.65
2019-05-01T11:20:09.028Z,13.75
2019-05-01T11:22:38.419Z,25.40
2019-05-01T11:25:08.042Z,16.55
2019-05-01T11:27:37.478Z,16.52
2019-05-01T11:30:11.713Z,13.28
2019-05-01T11:32:45.267Z,16.77
2019-05-01T11:35:31.374Z,14.65
2019-05-01T11:38:02.553Z,17.12
2019-05-01T11:40:33.622Z,17.37
2019-05-01T11:43:03.102Z,21.42
2019-05-01T11:45:32.645Z,19.47
2019-05-01T11:48:02.116Z,16.07
2019-05-01T11:50:31.481Z,18.50
2019-05-01T11:53:00.850Z,21.77
2019-05-01T11:55:30.250Z,15.78
2019-05-01T11:57:59.689Z,18.77
2019-05-01T12:00:29.146Z,18.10
2019-05-01T12:03:11.435Z,18.77
2019-05-01T12:05:40.840Z,18.67
2019-05-01T12:08:11.923Z,19.82
2019-05-01T12:10:41.359Z,21.47
2019-05-01T12:13:10.745Z,18.95
2019-05-01T12:15:41.779Z,24.23
2019-05-01T12:18:11.336Z,20.37
2019-05-01T12:20:43.741Z,21.75
2019-05-01T12:23:13.119Z,26.80
2019-05-01T12:25:42.519Z,23.87
2019-05-01T12:28:11.874Z,21.45
2019-05-01T12:30:41.265Z,21.30
2019-05-01T12:33:10.650Z,20.75
2019-05-01T12:35:40.050Z,25.57
2019-05-01T12:38:09.536Z,21.45
2019-05-01T12:40:38.912Z,25.23
2019-05-01T12:43:12.324Z,27.13
2019-05-01T12:45:44.297Z,34.35
2019-05-01T12:48:13.700Z,29.15
2019-05-01T12:50:43.360Z,25.40
2019-05-01T12:53:17.260Z,30.25
2019-05-01T12:55:48.310Z,28.05
2019-05-01T12:58:17.694Z,28.83
2019-05-01T13:00:55.558Z,24.72
2019-05-01T13:03:25.004Z,23.38
2019-05-01T13:05:54.706Z,28.17
2019-05-01T13:08:24.086Z,27.25
2019-05-01T13:10:53.462Z,32.73
2019-05-01T13:13:22.843Z,27.37
2019-05-01T13:15:52.268Z,25.45
2019-05-01T13:18:21.602Z,29.15
2019-05-01T13:20:50.991Z,31.50
2019-05-01T13:23:20.381Z,32.65
2019-05-01T13:25:52.595Z,31.42
2019-05-01T13:28:26.213Z,31.20
2019-05-01T13:31:00.474Z,33.98
2019-05-01T13:33:30.524Z,26.77
2019-05-01T13:36:02.666Z,31.55
2019-05-01T13:38:32.123Z,34.20
2019-05-01T13:41:01.502Z,31.42
2019-05-01T13:43:30.954Z,31.35
2019-05-01T13:46:00.345Z,29.60
2019-05-01T13:48:29.714Z,37.80
2019-05-01T13:50:59.097Z,34.50
2019-05-01T13:53:28.488Z,33.78
2019-05-01T13:55:57.866Z,33.92
2019-05-01T13:58:27.257Z,35.78
2019-05-01T14:00:56.700Z,35.48
2019-05-01T14:03:26.137Z,38.83
2019-05-01T14:05:55.523Z,35.08
2019-05-01T14:08:24.909Z,33.85
2019-05-01T14:10:54.302Z,33.73
2019-05-01T14:13:26.452Z,43.25
2019-05-01T14:15:56.458Z,38.85
2019-05-01T14:18:27.473Z,42.70
2019-05-01T14:20:58.476Z,45.43
2019-05-01T14:23:46.003Z,35.58
2019-05-01T14:26:15.383Z,40.48
2019-05-01T14:28:44.746Z,41.65
2019-05-01T14:31:14.143Z,43.45
2019-05-01T14:33:43.531Z,45.35
2019-05-01T14:36:12.905Z,42.83
2019-05-01T14:38:42.285Z,39.85
2019-05-01T14:41:11.681Z,39.42
2019-05-01T14:43:41.086Z,34.45
2019-05-01T14:46:10.474Z,37.40
2019-05-01T14:48:39.869Z,38.98
2019-05-01T14:51:09.243Z,41.10
2019-05-01T14:56:08.305Z,38.33
2019-05-01T14:58:37.781Z,38.15
2019-05-01T15:01:07.164Z,38.88
2019-05-01T15:03:36.528Z,39.35
2019-05-01T15:06:05.918Z,33.10
2019-05-01T15:08:35.303Z,39.80
2019-05-01T15:11:04.680Z,32.80
2019-05-01T15:13:41.693Z,36.58
2019-05-01T15:16:15.884Z,28.35
2019-05-01T15:18:50.110Z,31.10
2019-05-01T15:21:19.499Z,30.00
2019-05-01T15:23:53.771Z,32.15
2019-05-01T15:26:19.886Z,30.35
2019-05-01T15:28:49.379Z,36.38
2019-05-01T15:31:18.914Z,31.87
2019-05-01T15:33:48.302Z,32.00
2019-05-01T15:36:17.694Z,32.53
2019-05-01T15:38:48.025Z,31.68
2019-05-01T15:41:35.228Z,36.73
2019-05-01T15:44:07.326Z,37.88
2019-05-01T15:46:38.362Z,31.52
2019-05-01T15:49:07.745Z,30.12
2019-05-01T15:51:37.113Z,32.88
2019-05-01T15:54:06.516Z,33.85
2019-05-01T15:56:35.894Z,29.32
2019-05-01T15:59:05.289Z,30.70
2019-05-01T16:01:34.674Z,38.02
2019-05-01T16:06:33.725Z,43.90
2019-05-01T16:09:03.190Z,40.48
2019-05-01T16:12:12.026Z,38.85
2019-05-01T16:14:55.041Z,43.00
2019-05-01T16:17:24.435Z,45.28
2019-05-01T16:19:53.831Z,45.17
2019-05-01T16:22:23.189Z,41.42
2019-05-01T16:24:52.586Z,42.10
2019-05-01T16:27:22.111Z,42.00
2019-05-01T16:30:11.791Z,38.50
2019-05-01T16:32:41.190Z,37.90
2019-05-01T16:35:10.621Z,37.65
2019-05-01T16:37:40.088Z,35.90
2019-05-01T16:40:27.591Z,38.48
2019-05-01T16:42:58.059Z,34.53
2019-05-01T16:45:27.455Z,37.55
2019-05-01T16:48:01.069Z,35.45
2019-05-01T16:50:31.426Z,37.03
2019-05-01T16:53:00.787Z,35.15
2019-05-01T16:55:30.361Z,34.03
2019-05-01T16:57:59.878Z,37.37
2019-05-01T17:00:41.675Z,45.43
2019-05-01T17:03:15.900Z,40.90
2019-05-01T17:05:46.938Z,36.42
2019-05-01T17:08:36.016Z,38.88
2019-05-01T17:10:57.879Z,38.73
2019-05-01T17:13:27.259Z,41.15
2019-05-01T17:15:56.720Z,37.28
2019-05-01T17:18:26.113Z,39.80
2019-05-01T17:20:55.498Z,38.92
2019-05-01T17:23:24.946Z,39.78
2019-05-01T17:25:54.328Z,37.90
2019-05-01T17:28:23.703Z,34.65
2019-05-01T17:30:54.723Z,35.03
2019-05-01T17:33:24.188Z,33.65
2019-05-01T17:35:53.578Z,32.85
2019-05-01T17:38:23.040Z,37.48
2019-05-01T17:40:53.605Z,37.25
2019-05-01T17:43:23.103Z,30.15
2019-05-01T17:45:52.490Z,34.65
2019-05-01T17:48:21.878Z,31.00
2019-05-01T17:50:55.133Z,32.35
2019-05-01T17:53:22.263Z,31.27
2019-05-01T17:55:51.658Z,31.52
2019-05-01T18:01:01.384Z,31.30
2019-05-01T18:03:35.309Z,29.45
2019-05-01T18:06:06.561Z,36.13
2019-05-01T18:08:35.953Z,29.02
2019-05-01T18:11:09.320Z,27.87
2019-05-01T18:13:36.482Z,32.50
2019-05-01T18:16:05.859Z,32.20
2019-05-01T18:18:35.244Z,32.05
2019-05-01T18:21:04.717Z,27.73
2019-05-01T18:23:53.175Z,38.73
2019-05-01T18:26:38.639Z,24.57
2019-05-01T18:29:15.323Z,33.48
2019-05-01T18:31:44.884Z,24.95
2019-05-01T18:34:14.258Z,31.37
2019-05-01T18:36:45.303Z,29.50
2019-05-01T18:39:17.113Z,33.38
2019-05-01T18:41:51.665Z,33.33
2019-05-01T18:44:21.124Z,28.25
2019-05-01T18:46:50.577Z,28.47
2019-05-01T18:49:19.960Z,31.33
2019-05-01T18:51:49.330Z,32.28
2019-05-01T18:54:18.714Z,30.43
2019-05-01T18:56:48.106Z,28.02
2019-05-01T18:59:17.540Z,34.80
2019-05-01T19:01:48.402Z,37.63
2019-05-01T19:04:18.530Z,38.00
2019-05-01T19:06:50.007Z,36.55
2019-05-01T19:09:29.891Z,40.73
2019-05-01T19:11:50.540Z,39.08
2019-05-01T19:14:23.438Z,37.67
2019-05-01T19:17:13.018Z,37.13
2019-05-01T19:19:42.430Z,42.35
2019-05-01T19:22:11.835Z,42.88
2019-05-01T19:24:41.555Z,44.88
2019-05-01T19:27:14.198Z,43.60
2019-05-01T19:29:42.525Z,40.65
2019-05-01T19:32:13.342Z,43.17
2019-05-01T19:34:42.808Z,44.63
2019-05-01T19:37:16.636Z,46.13
2019-05-01T19:39:44.184Z,45.88
2019-05-01T19:42:15.362Z,51.70
2019-05-01T19:44:44.855Z,43.95
2019-05-01T19:47:15.450Z,47.80
2019-05-01T19:49:44.984Z,51.00
2019-05-01T19:52:14.624Z,47.85
2019-05-01T19:54:44.208Z,49.70
2019-05-01T19:57:13.804Z,53.65
2019-05-01T19:59:43.339Z,50.08
2019-05-01T20:02:17.195Z,46.73
2019-05-01T20:04:45.280Z,51.10
2019-05-01T20:07:18.776Z,54.77
2019-05-01T20:09:56.757Z,49.77
2019-05-01T20:12:18.033Z,45.63
2019-05-01T20:14:47.591Z,48.58
2019-05-01T20:17:17.275Z,51.80
2019-05-01T20:19:46.730Z,49.57
2019-05-01T20:22:16.255Z,48.57
2019-05-01T20:24:45.935Z,54.60
2019-05-01T20:27:15.373Z,53.20
2019-05-01T20:29:44.751Z,48.35
2019-05-01T20:32:14.206Z,48.23
2019-05-01T20:34:47.934Z,55.30
2019-05-01T20:37:15.139Z,47.90
2019-05-01T20:39:44.610Z,51.97
2019-05-01T20:42:14.368Z,52.17
2019-05-01T20:44:43.974Z,54.90
2019-05-01T20:49:42.974Z,52.75
2019-05-01T20:52:12.399Z,53.17
2019-05-01T20:54:41.818Z,56.68
2019-05-01T20:57:19.173Z,58.30
2019-05-01T20:59:48.173Z,56.58
2019-05-01T21:02:16.863Z,50.83
2019-05-01T21:04:53.885Z,52.40
2019-05-01T21:07:31.148Z,49.13
2019-05-01T21:10:02.349Z,50.83
2019-05-01T21:12:33.718Z,51.42
2019-05-01T21:15:05.058Z,51.50
2019-05-01T21:17:34.602Z,49.18
2019-05-01T21:20:04.518Z,50.25
2019-05-01T21:22:34.279Z,48.45
2019-05-01T21:25:04.730Z,49.93
2019-05-01T21:30:05.190Z,49.65
2019-05-01T21:32:35.089Z,52.15
2019-05-01T21:35:05.059Z,50.48
2019-05-01T21:37:34.565Z,55.83
2019-05-01T21:40:06.556Z,52.40
2019-05-01T21:42:36.011Z,54.58
2019-05-01T21:45:08.436Z,50.12
2019-05-01T21:47:37.964Z,49.83
2019-05-01T21:50:07.561Z,51.53
2019-05-01T21:52:37.117Z,53.45
2019-05-01T21:55:07.799Z,44.70
2019-05-01T21:57:40.437Z,52.53
2019-05-01T22:00:08.509Z,48.00
2019-05-01T22:02:41.517Z,51.60
2019-05-01T22:05:10.771Z,48.35
2019-05-01T22:07:40.246Z,49.18
2019-05-01T22:10:09.763Z,44.33
2019-05-01T22:15:17.099Z,48.25
2019-05-01T22:17:54.150Z,49.35
2019-05-01T22:20:40.808Z,53.95
2019-05-01T22:23:12.016Z,43.90
2019-05-01T22:25:43.318Z,49.18
2019-05-01T22:28:18.782Z,49.20
2019-05-01T22:30:47.493Z,48.28
2019-05-01T22:33:16.962Z,48.08
2019-05-01T22:35:48.015Z,45.75
2019-05-01T22:38:17.436Z,50.08
2019-05-01T22:41:05.517Z,49.42
2019-05-01T22:43:26.105Z,53.15
2019-05-01T22:45:56.212Z,51.63
2019-05-01T22:48:26.533Z,51.23
2019-05-01T22:50:57.890Z,59.33
2019-05-01T22:53:27.285Z,57.58
2019-05-01T22:55:57.343Z,54.25
2019-05-01T22:58:27.706Z,58.30
2019-05-01T23:00:58.718Z,62.30
2019-05-01T23:03:32.730Z,54.38
2019-05-01T23:06:06.126Z,60.17
2019-05-01T23:08:33.113Z,54.20
2019-05-01T23:11:02.492Z,56.18
2019-05-01T23:13:31.865Z,63.85
2019-05-01T23:16:01.542Z,55.75
2019-05-01T23:18:31.998Z,60.05
2019-05-01T23:21:01.386Z,58.78
2019-05-01T23:23:30.981Z,60.52
2019-05-01T23:26:00.375Z,57.23
2019-05-01T23:28:29.784Z,58.90
2019-05-01T23:30:59.328Z,58.70
2019-05-01T23:33:28.782Z,65.57
2019-05-01T23:35:58.145Z,57.85
2019-05-01T23:38:27.531Z,57.78
2019-05-01T23:40:57.026Z,64.97
2019-05-01T23:43:27.953Z,53.70
2019-05-01T23:45:57.430Z,57.30
2019-05-01T23:48:26.951Z,56.28
2019-05-01T23:51:08.706Z,59.45
2019-05-01T23:53:38.169Z,59.20
2019-05-01T23:56:07.620Z,58.25
2019-05-01T23:58:37.028Z,58.63
